Weather observations for the past three days for
Moose Lake Carlton County Airport
Imperial (Metric)
Date Time (cdt) Wind (mph) Vis. (mi.) Weather Sky Cond. Temperature (ºF) Relative Humidity Wind Chill (°F) Heat Index (°F) Pressure Precipitation (in)
Air Dwpt 6 hour altimeter (in) sea level (mb) 1 hr 3 hr 6 hr
Max. Min.
04 07:15 W 6 10.00 Overcast SCT065 SCT075 OVC085 53.6 37.4 54% 29.35 0.0
04 06:55 NW 6 10.00 Overcast BKN065 BKN075 OVC120 53.6 37.4 54% 29.35 0.0
04 06:35 NW 7 G 16 10.00 Mostly Cloudy BKN120 53.6 37.4 54% 29.34 0.0
04 06:15 NW 6 10.00 Fair CLR 53.6 39.2 58% 29.33 0.0
04 05:55 N 15 G 22 10.00 Fair CLR 55.4 39.2 55% 29.32 0.0
04 05:35 W 13 G 22 10.00 Fair CLR 60.8 32 34% 29.28 0.0
04 05:15 SW 16 G 26 10.00 Partly Cloudy SCT120 60.8 32 34% 29.28 0.0
04 04:55 SW 10 G 16 10.00 Partly Cloudy SCT110 60.8 32 34% 29.28 0.0
04 04:35 SW 12 G 17 10.00 Partly Cloudy SCT110 59 32 36% 29.29 0.0
04 04:15 SW 9 10.00 Partly Cloudy SCT110 59 32 36% 29.3 0.0
04 03:55 S 10 G 16 10.00 Mostly Cloudy SCT050 SCT070 BKN100 59 32 36% 29.3 0.0
04 03:35 S 10 G 17 10.00 Mostly Cloudy SCT050 SCT070 BKN110 59 32 36% 29.32 0.0
04 03:15 SW 12 G 17 10.00 Partly Cloudy SCT110 59 32 36% 29.33 0.0
04 02:55 SW 12 G 16 10.00 Fair CLR 59 32 36% 29.34 0.0
04 02:35 SW 10 G 20 10.00 Fair CLR 59 32 36% 29.36 0.0
04 02:15 SW 15 G 21 10.00 Fair CLR 59 32 36% 29.37 0.0
04 01:55 SW 13 G 25 10.00 Fair CLR 59 32 36% 29.39 0.0
04 01:35 SW 12 G 20 10.00 Fair CLR 59 32 36% 29.4 0.0
04 01:15 SW 10 G 17 10.00 Fair CLR 59 32 36% 29.42 0.0
04 00:55 SW 10 G 20 10.00 Fair CLR 59 32 36% 29.43 0.0
04 00:35 SW 7 10.00 Fair CLR 59 32 36% 29.44 0.0
04 00:15 SW 10 10.00 Fair CLR 59 32 36% 29.45 0.0
03 23:55 S 10 G 17 10.00 Fair CLR 59 32 36% 29.47 0.0
03 23:35 SW 8 10.00 Fair CLR 57.2 32 39% 29.48 0.0
03 23:15 S 7 10.00 Fair CLR 55.4 32 41% 29.49 0.0
03 22:55 S 6 10.00 Fair CLR 55.4 30.2 38% 29.51 0.0
03 22:35 S 6 10.00 Fair CLR 55.4 30.2 38% 29.52 0.0
03 22:15 S 6 10.00 Fair CLR 57.2 30.2 36% 29.54 0.0
03 21:55 S 5 10.00 Fair CLR 59 30.2 34% 29.55 0.0
03 21:35 S 5 10.00 Fair CLR 57.2 30.2 36% 29.56 0.0
03 21:15 S 5 10.00 Fair CLR 59 30.2 34% 29.57 0.0
03 20:55 S 5 10.00 Fair CLR 59 30.2 34% 29.58 0.0
03 20:35 SW 6 10.00 Fair CLR 62.6 30.2 30% 29.59 0.0
03 20:15 SW 5 10.00 Fair CLR 62.6 30.2 30% 29.59 0.0
03 19:55 W 5 10.00 Fair CLR 64.4 30.2 28% 29.6 0.0
03 19:35 W 8 10.00 Fair CLR 66.2 30.2 26% 29.6 0.0
03 19:15 W 10 10.00 Fair CLR 66.2 30.2 26% 29.6 0.0
03 18:55 SW 10 G 17 10.00 Fair CLR 68 32 26% 29.6 0.0
03 18:35 W 7 G 16 10.00 Fair CLR 68 30.2 24% 29.6 0.0
03 18:15 W 6 10.00 Fair CLR 69.8 32 25% 29.62 0.0
03 17:55 NW 6 G 16 10.00 Fair CLR 69.8 32 25% 29.63 0.0
03 17:35 W 9 10.00 Fair CLR 69.8 32 25% 29.63 0.0
03 17:15 W 8 10.00 Fair CLR 69.8 32 25% 29.63 0.0
03 16:55 W 8 G 16 10.00 Fair CLR 69.8 30.2 23% 29.64 0.0
03 16:35 W 10 G 21 10.00 Fair CLR 68 32 26% 29.64 0.0
03 16:15 W 10 G 18 10.00 Fair CLR 68 32 26% 29.65 0.0
03 15:55 NW 9 G 18 10.00 Fair CLR 68 32 26% 29.65 0.0
03 15:35 NW 9 G 22 10.00 Fair CLR 68 32 26% 29.66 0.0
03 15:15 NW 12 G 18 10.00 Fair CLR 68 32 26% 29.67 0.0
03 14:55 W 9 G 16 10.00 Fair CLR 68 32 26% 29.67 0.0
03 14:35 NW 13 G 18 10.00 Fair CLR 66.2 30.2 26% 29.68 0.0
03 14:15 NW 13 G 18 10.00 Fair CLR 68 30.2 24% 29.69 0.0
03 13:55 NW 13 G 20 10.00 Fair CLR 66.2 28.4 24% 29.69 0.0
03 13:35 W 7 10.00 Fair CLR 64.4 28.4 26% 29.69 0.0
03 13:15 NW 10 G 18 10.00 Fair CLR 64.4 26.6 24% 29.7 0.0
03 12:55 N 14 G 21 10.00 Fair CLR 64.4 23 21% 29.71 0.0
03 12:35 NW 9 10.00 Fair CLR 64.4 26.6 24% 29.71 0.0
03 12:15 NW 16 G 21 10.00 Fair CLR 64.4 26.6 24% 29.72 0.0
03 11:55 NW 8 10.00 Fair CLR 64.4 30.2 28% 29.71 0.0
03 11:35 W 12 G 16 10.00 Fair CLR 62.6 30.2 30% 29.71 0.0
03 11:15 N 9 G 17 10.00 Fair CLR 62.6 33.8 34% 29.71 0.0
03 10:55 W 10 G 17 10.00 Fair CLR 62.6 35.6 37% 29.72 0.0
03 10:35 N 10 G 24 10.00 Fair CLR 60.8 35.6 39% 29.71 0.0
03 10:15 N 10 G 20 10.00 Fair CLR 60.8 35.6 39% 29.72 0.0
03 09:55 NW 7 G 17 10.00 Fair CLR 60.8 37.4 42% 29.71 0.0
03 09:35 NW 12 G 16 10.00 Fair CLR 60.8 35.6 39% 29.71 0.0
03 09:15 NW 8 10.00 Fair CLR 59 37.4 45% 29.71 0.0
03 08:55 N 10 G 17 10.00 Fair CLR 59 37.4 45% 29.71 0.0
03 08:35 N 8 10.00 Fair CLR 57.2 37.4 48% 29.71 0.0
03 08:15 NW 6 10.00 Fair CLR 53.6 37.4 54% 29.71 0.0
03 07:55 NW 7 10.00 Fair CLR 51.8 37.4 58% 29.71 0.0
03 07:35 N 3 10.00 Fair CLR 50 37.4 62% 29.7 0.0
03 07:15 Calm 10.00 Fair CLR 44.6 35.6 71% 29.69 0.0
03 06:55 Calm 10.00 Fair CLR 42.8 35.6 76% 29.69 0.0
03 06:35 Calm 10.00 Fair CLR 42.8 35.6 76% 29.69 0.0
03 06:15 Calm 10.00 Fair CLR 42.8 35.6 76% 29.68 0.0
03 05:55 N 3 10.00 Fair CLR 41 35.6 81% 29.68 0.0
03 05:35 Calm 10.00 Fair CLR 41 35.6 81% 29.67 0.0
03 05:15 Calm 10.00 Fair CLR 42.8 35.6 76% 29.67 0.0
03 04:55 Calm 10.00 Fair CLR 42.8 35.6 76% 29.67 0.0
03 04:35 SW 5 10.00 Fair CLR 44.6 35.6 71% 43 29.67 0.0
03 04:15 Calm 10.00 Fair CLR 44.6 35.6 71% 29.67 0.0
03 03:55 Calm 10.00 Fair CLR 44.6 35.6 71% 29.67 0.0
03 03:35 Calm 10.00 Partly Cloudy SCT090 46.4 35.6 66% 29.68 0.0
03 03:15 Calm 10.00 Mostly Cloudy BKN090 46.4 35.6 66% 29.68 0.0
03 02:55 Calm 10.00 Mostly Cloudy BKN090 46.4 37.4 71% 29.69 0.0
03 02:35 Calm 10.00 Partly Cloudy SCT090 SCT120 46.4 35.6 66% 29.69 0.0
03 02:15 Calm 10.00 Mostly Cloudy SCT090 BKN120 50 35.6 58% 29.69 0.0
03 01:55 Calm 10.00 Mostly Cloudy BKN090 BKN120 50 35.6 58% 29.7 0.0
03 01:35 Calm 10.00 Overcast BKN100 OVC120 51.8 35.6 54% 29.7 0.0
03 01:15 Calm 10.00 Overcast BKN100 OVC120 53.6 35.6 51% 29.71 0.0
03 00:55 S 3 10.00 Mostly Cloudy SCT100 BKN120 55.4 35.6 47% 29.72 0.0
03 00:35 S 5 10.00 Overcast BKN100 OVC120 55.4 35.6 47% 29.72 0.0
03 00:15 S 3 10.00 Light Rain SCT048 BKN070 OVC100 51.8 39.2 62% 29.74 0.0
02 23:55 Calm 10.00 Overcast SCT060 BKN075 OVC090 55.4 35.6 47% 29.76 0.0
02 23:35 Calm 10.00 Overcast BKN090 OVC110 55.4 35.6 47% 29.76 0.0
02 23:15 Calm 10.00 Overcast BKN100 OVC110 55.4 35.6 47% 29.76 0.0
02 22:55 SW 3 10.00 Overcast OVC100 55.4 35.6 47% 29.76 0.0
02 22:35 SE 3 10.00 Overcast SCT070 OVC090 55.4 35.6 47% 29.75 0.0
02 22:15 Calm 10.00 Overcast SCT060 BKN070 OVC090 59 35.6 42% 29.78 0.0
02 21:55 SW 8 10.00 Light Drizzle SCT060 OVC070 59 35.6 42% 29.79 0.0
02 21:35 W 7 10.00 Overcast OVC070 60.8 33.8 36% 29.79 0.0
02 21:15 W 3 10.00 Overcast OVC080 60.8 33.8 36% 29.79 0.0
02 20:55 W 3 10.00 Overcast OVC080 60.8 33.8 36% 29.79 0.0
02 20:35 NW 7 10.00 Overcast OVC080 60.8 33.8 36% 29.79 0.0
02 20:15 NW 5 10.00 Overcast BKN080 OVC090 60.8 33.8 36% 29.79 0.0
02 19:55 NW 3 10.00 Overcast SCT075 BKN090 OVC110 62.6 33.8 34% 29.79 0.0
02 19:35 W 3 10.00 Overcast OVC110 62.6 33.8 34% 29.79 0.0
02 19:15 W 6 10.00 Overcast OVC100 62.6 33.8 34% 29.79 0.0
02 18:55 SW 8 10.00 Overcast SCT080 OVC120 64.4 33.8 32% 29.79 0.0
02 18:35 W 9 10.00 Overcast BKN090 OVC100 62.6 33.8 34% 29.8 0.0
02 18:15 S 5 10.00 Mostly Cloudy BKN100 BKN120 62.6 33.8 34% 29.8 0.0
02 17:55 S 7 10.00 Partly Cloudy SCT110 62.6 33.8 34% 29.8 0.0
02 17:35 SW 8 10.00 Mostly Cloudy BKN110 62.6 32 32% 29.81 0.0
02 17:15 SW 8 10.00 Partly Cloudy SCT110 64.4 32 30% 29.81 0.0
02 16:55 SW 14 G 20 10.00 Mostly Cloudy BKN110 64.4 32 30% 29.82 0.0
02 16:35 SW 9 G 17 10.00 Mostly Cloudy BKN110 62.6 32 32% 29.83 0.0
02 16:15 S 13 G 17 10.00 Partly Cloudy SCT110 64.4 32 30% 29.84 0.0
02 15:55 SW 12 10.00 Overcast OVC110 64.4 32 30% 29.85 0.0
02 15:35 SW 12 G 18 10.00 Overcast OVC100 62.6 32 32% 29.86 0.0
02 15:15 SW 10 G 18 10.00 Overcast OVC100 60.8 32 34% 29.87 0.0
02 14:55 SW 10 10.00 Overcast OVC100 62.6 30.2 30% 29.88 0.0
02 14:35 SW 6 10.00 Overcast OVC100 62.6 30.2 30% 29.88 0.0
02 14:15 SW 13 G 16 10.00 Mostly Cloudy BKN100 62.6 30.2 30% 29.89 0.0
02 13:55 SW 10 G 17 10.00 Mostly Cloudy BKN100 62.6 30.2 30% 29.9 0.0
02 13:35 SW 9 G 18 10.00 Mostly Cloudy BKN100 62.6 30.2 30% 29.91 0.0
02 13:15 SW 8 10.00 Mostly Cloudy BKN100 60.8 28.4 29% 29.93 0.0
02 12:55 W 9 10.00 Mostly Cloudy BKN100 60.8 28.4 29% 29.94 0.0
02 12:35 W 6 10.00 Fair CLR 59 28.4 31% 29.95 0.0
02 12:15 SW 10 10.00 Fair CLR 59 28.4 31% 29.96 0.0
02 11:55 W 7 10.00 Fair CLR 59 28.4 31% 29.97 0.0
02 11:35 Calm 10.00 Partly Cloudy SCT080 57.2 26.6 31% 29.97 0.0
02 11:15 W 5 10.00 Partly Cloudy SCT080 55.4 26.6 33% 29.99 0.0
02 10:55 SW 3 10.00 Fair CLR 55.4 24.8 31% 30 0.0
02 10:35 W 10 10.00 Fair CLR 55.4 26.6 33% 30.01 0.0
02 10:15 W 8 10.00 Fair CLR 55.4 24.8 31% 30.01 0.0
02 09:55 SW 10 10.00 Fair CLR 53.6 24.8 33% 30.02 0.0
02 09:35 W 5 10.00 Fair CLR 51.8 26.6 38% 30.03 0.0
02 09:15 Calm 10.00 Fair CLR 50 28.4 43% 30.03 0.0
02 08:55 Calm 10.00 Fair CLR 46.4 28.4 50% 30.04 0.0
02 08:35 Calm 10.00 Fair CLR 42.8 28.4 57% 30.04 0.0
02 08:15 Calm 10.00 Fair CLR 39.2 28.4 65% 30.05 0.0
02 07:55 Calm 10.00 Fair CLR 35.6 28.4 75% 30.05 0.0
02 07:35 Calm 10.00 Fair CLR 33.8 28.4 81% 30.05 0.0
02 07:15 Calm 10.00 Fair CLR 30.2 26.6 86% 30.05 0.0
02 06:55 Calm 10.00 Fair CLR 28.4 26.6 93% 30.05 0.0
02 06:35 Calm 10.00 Fair CLR 28.4 26.6 93% 30.05 0.0
02 06:15 Calm 10.00 Fair CLR 26.6 23 86% 30.05 0.0
02 05:55 Calm 10.00 Fair CLR 28.4 23 80% 30.05 0.0
02 05:35 Calm 10.00 Fair CLR 28.4 24.8 86% 30.06 0.0
02 05:15 S 3 10.00 Fair CLR 28.4 24.8 86% 30.06 0.0
02 04:55 Calm 10.00 Fair CLR 28.4 26.6 93% 30.06 0.0
02 04:35 Calm 10.00 Fair CLR 28.4 24.8 86% 30.05 0.0
02 04:15 Calm 10.00 Fair CLR 28.4 24.8 86% 30.05 0.0
02 03:55 Calm 10.00 Fair CLR 30.2 26.6 86% 30.05 0.0
02 03:35 Calm 10.00 Fair CLR 30.2 26.6 86% 30.05 0.0
02 03:15 Calm 10.00 Fair CLR 30.2 26.6 86% 30.05 0.0
02 02:55 Calm 10.00 Fair CLR 32 26.6 80% 30.05 0.0
02 02:35 Calm 10.00 Fair CLR 32 26.6 80% 30.06 0.0
02 02:15 Calm 10.00 Fair CLR 32 26.6 80% 30.06 0.0
02 01:55 Calm 10.00 Fair CLR 32 28.4 87% 30.06 0.0
02 01:35 Calm 10.00 Fair CLR 32 26.6 80% 30.07 0.0
02 01:15 Calm 10.00 Fair CLR 32 26.6 80% 30.07 0.0
02 00:55 NE 3 10.00 Fair CLR 32 26.6 80% 30.06 0.0
02 00:35 NE 3 10.00 Fair CLR 33.8 26.6 75% 30.07 0.0
02 00:15 Calm 10.00 Fair CLR 33.8 26.6 75% 30.07 0.0
01 23:55 Calm 10.00 Fair CLR 33.8 26.6 75% 30.07 0.0
01 23:35 NE 3 10.00 Fair CLR 37.4 26.6 65% 30.07 0.0
01 23:15 NE 3 10.00 Fair CLR 37.4 26.6 65% 30.07 0.0
01 22:55 N 3 10.00 Fair CLR 37.4 26.6 65% 30.07 0.0
01 22:35 N 3 10.00 Fair CLR 37.4 26.6 65% 30.07 0.0
01 22:15 NE 3 10.00 Partly Cloudy SCT080 37.4 23 56% 30.07 0.0
01 21:55 Calm 10.00 Fair CLR 41 23 49% 30.07 0.0
01 21:35 Calm 10.00 Fair CLR 41 21.2 45% 30.06 0.0
01 21:15 Calm 10.00 Fair CLR 42.8 21.2 42% 30.05 0.0
01 20:55 Calm 10.00 Fair CLR 44.6 19.4 37% 30.05 0.0
01 20:35 Calm 10.00 Partly Cloudy SCT085 48.2 21.2 34% 30.04 0.0
01 20:15 N 3 10.00 Mostly Cloudy BKN085 50 21.2 32% 30.04 0.0
01 19:55 N 5 10.00 Overcast OVC095 51.8 21.2 30% 30.04 0.0
01 19:35 N 3 10.00 Overcast OVC095 51.8 21.2 30% 30.04 0.0
01 19:15 NW 3 10.00 Overcast OVC095 53.6 21.2 28% 30.04 0.0
01 18:55 NW 7 10.00 Overcast OVC095 53.6 21.2 28% 30.04 0.0
01 18:35 Calm 10.00 Overcast OVC095 53.6 21.2 28% 30.04 0.0
01 18:15 N 7 10.00 Overcast OVC085 53.6 21.2 28% 30.04 0.0
01 17:55 N 7 10.00 Overcast OVC085 53.6 21.2 28% 30.04 0.0
01 17:35 NE 5 10.00 Overcast OVC085 53.6 21.2 28% 30.04 0.0
01 17:15 N 5 10.00 Overcast OVC085 53.6 21.2 28% 30.04 0.0
01 16:55 N 6 G 18 10.00 Mostly Cloudy BKN085 53.6 21.2 28% 30.04 0.0
01 16:35 Calm 10.00 Mostly Cloudy BKN085 53.6 21.2 28% 30.04 0.0
01 16:15 NW 9 10.00 Partly Cloudy SCT085 53.6 23 30% 30.04 0.0
01 15:55 N 8 10.00 Partly Cloudy SCT085 53.6 21.2 28% 30.04 0.0
01 15:35 N 7 10.00 Partly Cloudy SCT075 51.8 21.2 30% 30.05 0.0
01 15:15 N 8 10.00 Mostly Cloudy BKN075 53.6 21.2 28% 30.05 0.0
01 14:55 NW 9 10.00 Mostly Cloudy BKN075 55.4 21.2 26% 30.05 0.0
01 14:35 N 6 10.00 Partly Cloudy SCT075 50 19.4 30% 48 30.05 0.0
01 14:15 NW 12 10.00 Mostly Cloudy BKN075 53.6 21.2 28% 30.06 0.0
01 13:55 N 9 10.00 Fair CLR 51.8 21.2 30% 30.06 0.0
01 13:35 N 6 10.00 Partly Cloudy SCT070 51.8 21.2 30% 30.06 0.0
01 13:15 NE 8 10.00 Fair CLR 50 21.2 32% 47 30.06 0.0
01 12:55 N 5 G 17 10.00 Fair CLR 51.8 21.2 30% 30.07 0.0
01 12:35 N 7 10.00 Partly Cloudy SCT065 50 21.2 32% 48 30.07 0.0
01 12:15 N 9 10.00 Fair CLR 50 23 35% 47 30.08 0.0
01 11:55 N 8 10.00 Partly Cloudy SCT060 48.2 23 37% 45 30.08 0.0
01 11:35 N 6 10.00 Mostly Cloudy BKN060 46.4 23 40% 44 30.09 0.0
01 11:15 NW 8 10.00 Mostly Cloudy BKN050 46.4 23 40% 43 30.09 0.0
01 10:55 N 7 10.00 Partly Cloudy SCT050 44.6 23 43% 41 30.09 0.0
01 10:35 N 9 10.00 Partly Cloudy SCT050 44.6 24.8 46% 40 30.1 0.0
01 10:15 NW 7 10.00 Fair CLR 44.6 23 43% 41 30.1 0.0
01 09:55 NW 5 10.00 Fair CLR 42.8 23 46% 41 30.11 0.0
01 09:35 N 5 10.00 Fair CLR 42.8 23 46% 41 30.11 0.0
01 09:15 N 3 10.00 Fair CLR 42.8 21.2 42% 30.11 0.0
01 08:55 N 6 10.00 Fair CLR 41 21.2 45% 38 30.11 0.0
01 08:35 NE 3 10.00 Fair CLR 41 21.2 45% 30.11 0.0
01 08:15 N 3 10.00 Fair CLR 39.2 21.2 48% 30.11 0.0
01 07:55 N 5 10.00 Partly Cloudy SCT060 37.4 24.8 60% 34 30.11 0.0
01 07:35 Calm 10.00 Mostly Cloudy BKN060 35.6 26.6 70% 30.1 0.0
Date Time (cdt) Wind (mph) Vis. (mi.) Weather Sky Cond. Air Dwpt Max. Min. Relative Humidity Wind Chill (°F) Heat Index (°F) altimeter (in) sea level (mb) 1 hr 3 hr 6 hr
6 hour
Temperature (ºF) Pressure Precipitation (in)